createdAt,value
2022-09-03T00:00:25.500Z,16.40
2022-09-03T00:02:39.537Z,16.38
2022-09-03T00:04:59.705Z,16.43
2022-09-03T00:07:18.446Z,16.56
2022-09-03T00:09:31.148Z,16.52
2022-09-03T00:11:55.845Z,16.52
2022-09-03T00:14:08.575Z,16.57
2022-09-03T00:16:22.024Z,16.60
2022-09-03T00:18:35.108Z,16.63
2022-09-03T00:20:46.913Z,16.63
2022-09-03T00:22:57.519Z,16.59
2022-09-03T00:25:14.471Z,16.61
2022-09-03T00:27:27.070Z,16.59
2022-09-03T00:29:41.041Z,16.60
2022-09-03T00:32:02.283Z,16.57
2022-09-03T00:34:15.673Z,16.55
2022-09-03T00:36:28.775Z,16.59
2022-09-03T00:38:37.363Z,16.60
2022-09-03T00:41:06.963Z,16.61
2022-09-03T00:43:25.620Z,16.61
2022-09-03T00:45:42.124Z,16.57
2022-09-03T00:48:05.694Z,16.66
2022-09-03T00:50:23.176Z,16.60
2022-09-03T00:52:46.193Z,16.59
2022-09-03T00:55:02.836Z,16.67
2022-09-03T00:57:27.926Z,16.75
2022-09-03T00:59:42.118Z,16.78
2022-09-03T01:02:00.855Z,16.77
2022-09-03T01:04:34.814Z,16.80
2022-09-03T01:06:50.278Z,16.77
2022-09-03T01:09:12.090Z,16.80
2022-09-03T01:11:33.949Z,16.74
2022-09-03T01:13:46.459Z,16.73
2022-09-03T01:16:09.043Z,16.70
2022-09-03T01:18:26.573Z,16.75
2022-09-03T01:20:47.443Z,16.75
2022-09-03T01:23:27.903Z,16.79
2022-09-03T01:25:50.197Z,16.75
2022-09-03T01:28:19.593Z,16.76
2022-09-03T01:30:29.075Z,16.70
2022-09-03T01:32:45.604Z,16.70
2022-09-03T01:35:04.106Z,16.71
2022-09-03T01:37:21.767Z,16.74
2022-09-03T01:39:39.261Z,16.66
2022-09-03T01:42:07.509Z,16.69
2022-09-03T01:44:30.230Z,16.62
2022-09-03T01:46:42.631Z,16.59
2022-09-03T01:48:56.803Z,16.54
2022-09-03T01:51:13.917Z,16.51
2022-09-03T01:53:41.576Z,16.51
2022-09-03T01:56:07.528Z,16.54
2022-09-03T01:58:23.274Z,16.56
2022-09-03T02:00:37.837Z,16.58
2022-09-03T02:02:48.093Z,16.58
2022-09-03T02:05:02.583Z,16.59
2022-09-03T02:07:13.178Z,16.54
2022-09-03T02:09:22.027Z,16.53
2022-09-03T02:11:30.195Z,16.56
2022-09-03T02:13:42.673Z,16.57
2022-09-03T02:15:56.178Z,16.52
2022-09-03T02:18:06.867Z,16.48
2022-09-03T02:20:20.158Z,16.54
2022-09-03T02:22:28.289Z,16.62
2022-09-03T02:24:36.331Z,16.53
2022-09-03T02:26:48.723Z,16.52
2022-09-03T02:28:58.641Z,16.48
2022-09-03T02:31:09.860Z,16.46
2022-09-03T02:33:18.963Z,16.49
2022-09-03T02:35:26.865Z,16.46
2022-09-03T02:37:35.440Z,16.42
2022-09-03T02:39:44.466Z,16.39
2022-09-03T02:41:56.517Z,16.38
2022-09-03T02:44:09.367Z,16.30
2022-09-03T02:46:24.486Z,16.41
2022-09-03T02:48:33.198Z,16.43
2022-09-03T02:50:44.089Z,16.26
2022-09-03T02:52:54.701Z,16.12
2022-09-03T02:55:02.488Z,16.06
2022-09-03T02:57:10.783Z,15.94
2022-09-03T02:59:19.512Z,15.89
2022-09-03T03:01:30.284Z,15.89
2022-09-03T03:03:40.390Z,15.86
2022-09-03T03:05:51.436Z,15.85
2022-09-03T03:07:59.276Z,15.82
2022-09-03T03:10:07.846Z,15.77
2022-09-03T03:12:17.430Z,15.78
2022-09-03T03:14:28.937Z,15.79
2022-09-03T03:16:39.967Z,15.80
2022-09-03T03:18:48.830Z,15.83
2022-09-03T03:20:56.827Z,15.86
2022-09-03T03:23:04.804Z,15.82
2022-09-03T03:25:13.190Z,15.71
2022-09-03T03:27:21.341Z,15.69
2022-09-03T03:29:29.523Z,15.76
2022-09-03T03:31:39.981Z,15.78
2022-09-03T03:33:48.630Z,15.72
2022-09-03T03:35:56.393Z,15.61
2022-09-03T03:38:04.290Z,15.49
2022-09-03T03:40:13.371Z,15.49
2022-09-03T03:42:21.193Z,15.49
2022-09-03T03:44:29.861Z,15.46
2022-09-03T03:46:41.677Z,15.45
2022-09-03T03:48:50.873Z,15.45
2022-09-03T03:50:59.270Z,15.43
2022-09-03T03:53:07.256Z,15.43
2022-09-03T03:55:16.065Z,15.39
2022-09-03T03:57:24.910Z,15.40
2022-09-03T03:59:32.704Z,15.42
2022-09-03T04:01:43.526Z,15.44
2022-09-03T04:03:53.024Z,15.51
2022-09-03T04:06:04.970Z,15.51
2022-09-03T04:08:13.401Z,15.59
2022-09-03T04:10:21.213Z,15.56
2022-09-03T04:12:31.339Z,15.57
2022-09-03T04:14:39.298Z,15.55
2022-09-03T04:16:51.156Z,15.51
2022-09-03T04:19:00.391Z,15.51
2022-09-03T04:21:10.255Z,15.49
2022-09-03T04:23:18.238Z,15.53
2022-09-03T04:25:26.236Z,15.47
2022-09-03T04:27:34.081Z,15.47
2022-09-03T04:29:41.902Z,15.45
2022-09-03T04:32:04.766Z,15.43
2022-09-03T04:34:13.429Z,15.45
2022-09-03T04:36:23.665Z,15.49
2022-09-03T04:38:32.608Z,15.40
2022-09-03T04:40:40.573Z,15.45
2022-09-03T04:42:48.551Z,15.50
2022-09-03T04:44:57.189Z,15.57
2022-09-03T04:47:08.909Z,15.51
2022-09-03T04:49:16.859Z,15.49
2022-09-03T04:51:27.429Z,15.45
2022-09-03T04:53:37.977Z,15.46
2022-09-03T04:55:45.765Z,15.42
2022-09-03T04:57:55.919Z,15.45
2022-09-03T05:00:04.353Z,15.46
2022-09-03T05:02:15.801Z,15.47
2022-09-03T05:04:23.990Z,15.58
2022-09-03T05:06:38.846Z,15.67
2022-09-03T05:08:46.987Z,15.63
2022-09-03T05:11:03.513Z,15.55
2022-09-03T05:13:11.335Z,15.56
2022-09-03T05:15:23.801Z,15.53
2022-09-03T05:17:37.674Z,15.49
2022-09-03T05:19:46.661Z,15.50
2022-09-03T05:21:54.615Z,15.51
2022-09-03T05:24:03.551Z,15.51
2022-09-03T05:26:13.458Z,15.56
2022-09-03T05:28:21.251Z,15.58
2022-09-03T05:30:29.121Z,15.63
2022-09-03T05:32:39.672Z,15.85
2022-09-03T05:34:48.696Z,16.04
2022-09-03T05:36:58.726Z,16.05
2022-09-03T05:39:07.446Z,16.06
2022-09-03T05:41:19.730Z,16.14
2022-09-03T05:43:27.617Z,16.08
2022-09-03T05:45:36.842Z,16.14
2022-09-03T05:47:47.341Z,16.14
2022-09-03T05:49:55.201Z,16.27
2022-09-03T05:52:03.331Z,16.35
2022-09-03T05:54:12.140Z,16.40
2022-09-03T05:56:21.709Z,16.57
2022-09-03T05:58:34.014Z,16.61
2022-09-03T06:00:42.126Z,16.55
2022-09-03T06:02:58.329Z,16.51
2022-09-03T06:05:08.190Z,16.29
2022-09-03T06:07:16.457Z,16.48
2022-09-03T06:09:25.149Z,16.33
2022-09-03T06:11:35.597Z,16.21
2022-09-03T06:13:45.701Z,16.11
2022-09-03T06:15:53.576Z,16.16
2022-09-03T06:18:04.433Z,16.08
2022-09-03T06:20:13.415Z,15.93
2022-09-03T06:22:21.427Z,16.04
2022-09-03T06:24:30.118Z,16.20
2022-09-03T06:26:38.077Z,16.22
2022-09-03T06:28:51.110Z,16.25
2022-09-03T06:31:02.401Z,16.41
2022-09-03T06:33:13.430Z,16.63
2022-09-03T06:35:21.828Z,16.78
2022-09-03T06:37:29.906Z,16.70
2022-09-03T06:39:37.892Z,16.70
2022-09-03T06:41:46.117Z,16.62
2022-09-03T06:43:55.057Z,16.57
2022-09-03T06:46:06.094Z,16.76
2022-09-03T06:48:17.960Z,16.94
2022-09-03T06:50:26.293Z,16.91
2022-09-03T06:52:34.305Z,16.73
2022-09-03T06:54:42.583Z,16.63
2022-09-03T06:56:50.685Z,16.73
2022-09-03T06:59:01.477Z,16.75
2022-09-03T07:01:11.396Z,16.90
2022-09-03T07:03:22.165Z,16.97
2022-09-03T07:05:30.638Z,17.03
2022-09-03T07:07:38.849Z,17.14
2022-09-03T07:09:48.435Z,17.15
2022-09-03T07:11:56.447Z,17.45
2022-09-03T07:14:05.001Z,17.38
2022-09-03T07:16:14.786Z,17.33
2022-09-03T07:18:25.509Z,17.25
2022-09-03T07:20:33.442Z,17.14
2022-09-03T07:22:42.842Z,17.43
2022-09-03T07:24:52.507Z,17.47
2022-09-03T07:27:00.433Z,17.46
2022-09-03T07:29:08.868Z,17.28
2022-09-03T07:31:19.777Z,17.27
2022-09-03T07:33:34.242Z,17.54
2022-09-03T07:35:42.405Z,17.34
2022-09-03T07:37:50.499Z,17.44
2022-09-03T07:39:58.406Z,17.51
2022-09-03T07:42:10.984Z,17.68
2022-09-03T07:44:21.648Z,17.85
2022-09-03T07:46:30.768Z,18.17
2022-09-03T07:48:41.394Z,18.47
2022-09-03T07:50:49.276Z,18.86
2022-09-03T07:53:00.500Z,19.02
2022-09-03T07:55:09.985Z,19.41
2022-09-03T07:57:17.922Z,19.73
2022-09-03T07:59:26.363Z,19.67
2022-09-03T08:01:35.597Z,19.47
2022-09-03T08:03:48.262Z,19.47
2022-09-03T08:05:56.140Z,19.28
2022-09-03T08:08:04.031Z,19.46
2022-09-03T08:10:13.719Z,19.84
2022-09-03T08:12:21.596Z,20.15
2022-09-03T08:14:30.455Z,20.46
2022-09-03T08:16:40.295Z,20.42
2022-09-03T08:18:51.374Z,20.48
2022-09-03T08:21:02.403Z,20.22
2022-09-03T08:23:10.315Z,19.71
2022-09-03T08:25:18.381Z,19.60
2022-09-03T08:27:26.435Z,20.03
2022-09-03T08:29:35.194Z,20.01
2022-09-03T08:31:44.007Z,20.64
2022-09-03T08:33:56.556Z,20.23
2022-09-03T08:36:08.343Z,20.27
2022-09-03T08:38:16.155Z,19.98
2022-09-03T08:40:25.676Z,20.17
2022-09-03T08:42:48.527Z,19.82
2022-09-03T08:44:59.873Z,20.14
2022-09-03T08:47:14.459Z,20.40
2022-09-03T08:49:29.646Z,20.92
2022-09-03T08:51:40.530Z,20.84
2022-09-03T08:53:55.329Z,21.01
2022-09-03T08:56:07.732Z,21.41
2022-09-03T08:58:19.669Z,21.08
2022-09-03T09:00:28.019Z,21.31
2022-09-03T09:02:48.096Z,21.95
2022-09-03T09:05:07.677Z,22.58
2022-09-03T09:07:28.520Z,22.92
2022-09-03T09:09:41.910Z,22.27
2022-09-03T09:12:00.003Z,22.35
2022-09-03T09:14:20.884Z,22.08
2022-09-03T09:16:36.762Z,22.74
2022-09-03T09:18:58.938Z,23.44
2022-09-03T09:21:20.331Z,23.47
2022-09-03T09:23:34.084Z,22.98
2022-09-03T09:25:51.225Z,23.03
2022-09-03T09:28:03.286Z,23.63
2022-09-03T09:30:13.354Z,23.59
2022-09-03T09:32:23.898Z,23.61
2022-09-03T09:34:32.078Z,22.89
2022-09-03T09:36:48.105Z,21.93
2022-09-03T09:38:56.450Z,21.39
2022-09-03T09:41:12.931Z,21.44
2022-09-03T09:43:22.639Z,21.45
2022-09-03T09:45:31.575Z,21.33
2022-09-03T09:47:42.678Z,22.68
2022-09-03T09:49:59.824Z,25.20
2022-09-03T09:52:15.750Z,26.49
2022-09-03T09:54:29.381Z,27.42
2022-09-03T09:56:40.203Z,25.73
2022-09-03T09:58:49.399Z,24.91
2022-09-03T10:01:13.520Z,24.87
2022-09-03T10:03:23.114Z,24.87
2022-09-03T10:05:34.949Z,24.81
2022-09-03T10:07:45.607Z,25.33
2022-09-03T10:10:09.255Z,25.69
2022-09-03T10:12:24.866Z,25.85
2022-09-03T10:14:37.727Z,24.74
2022-09-03T10:16:50.854Z,24.37
2022-09-03T10:19:07.777Z,24.73
2022-09-03T10:21:21.124Z,25.07
2022-09-03T10:23:38.857Z,25.05
2022-09-03T10:26:00.676Z,24.70
2022-09-03T10:28:14.578Z,23.83
2022-09-03T10:30:22.593Z,24.36
2022-09-03T10:32:42.838Z,24.30
2022-09-03T10:35:08.275Z,24.33
2022-09-03T10:37:24.848Z,23.96
2022-09-03T10:39:52.264Z,24.42
2022-09-03T10:42:14.852Z,24.87
2022-09-03T10:44:36.050Z,25.26
2022-09-03T10:46:56.651Z,25.21
2022-09-03T10:49:20.709Z,25.00
2022-09-03T10:51:34.095Z,24.69
2022-09-03T10:53:53.704Z,24.75
2022-09-03T10:56:13.127Z,24.67
2022-09-03T10:58:47.306Z,24.68
2022-09-03T11:00:59.388Z,24.89
2022-09-03T11:03:35.357Z,24.91
2022-09-03T11:05:45.925Z,24.32
2022-09-03T11:08:01.493Z,23.70
2022-09-03T11:10:20.709Z,23.63
2022-09-03T11:12:38.399Z,23.99
2022-09-03T11:14:50.040Z,23.95
2022-09-03T11:17:05.092Z,24.26
2022-09-03T11:19:18.162Z,24.66
2022-09-03T11:21:29.440Z,23.98
2022-09-03T11:23:43.238Z,24.03
2022-09-03T11:25:55.599Z,23.55
2022-09-03T11:28:15.554Z,23.77
2022-09-03T11:30:28.322Z,23.31
2022-09-03T11:32:52.880Z,22.93
2022-09-03T11:35:04.021Z,22.63
2022-09-03T11:37:23.226Z,22.99
2022-09-03T11:39:39.322Z,23.35
2022-09-03T11:42:00.099Z,23.41
2022-09-03T11:44:21.214Z,23.49
2022-09-03T11:46:34.040Z,23.31
2022-09-03T11:48:46.329Z,23.02
2022-09-03T11:50:58.579Z,22.21
2022-09-03T11:53:28.360Z,21.72
2022-09-03T11:55:53.413Z,21.74
2022-09-03T11:58:01.661Z,21.81
2022-09-03T12:00:18.732Z,22.01
2022-09-03T12:02:33.727Z,22.07
2022-09-03T12:04:49.064Z,21.97
2022-09-03T12:07:33.355Z,21.65
2022-09-03T12:10:11.266Z,21.36
2022-09-03T12:12:46.254Z,21.02
2022-09-03T12:15:02.767Z,20.84
2022-09-03T12:17:31.442Z,20.59
2022-09-03T12:19:43.974Z,20.15
2022-09-03T12:21:53.384Z,19.73
2022-09-03T12:24:05.064Z,19.28
2022-09-03T12:26:16.624Z,18.82
2022-09-03T12:28:27.935Z,17.97
2022-09-03T12:30:37.026Z,17.55
2022-09-03T12:32:48.121Z,17.35
2022-09-03T12:34:56.710Z,17.09
2022-09-03T12:37:05.193Z,16.89
2022-09-03T12:39:14.065Z,16.72
2022-09-03T12:41:28.160Z,16.56
2022-09-03T12:43:38.450Z,16.49
2022-09-03T12:46:13.717Z,16.28
2022-09-03T12:48:26.362Z,16.03
2022-09-03T12:50:35.455Z,16.02
2022-09-03T12:52:48.202Z,15.86
2022-09-03T12:55:01.087Z,15.70
2022-09-03T12:57:09.523Z,15.64
2022-09-03T12:59:23.179Z,15.38
2022-09-03T13:01:38.133Z,15.35
2022-09-03T13:03:54.378Z,15.32
2022-09-03T13:06:06.320Z,15.33
2022-09-03T13:08:21.262Z,15.42
2022-09-03T13:10:32.508Z,15.55
2022-09-03T13:12:53.019Z,15.65
2022-09-03T13:15:09.917Z,15.55
2022-09-03T13:17:33.012Z,15.63
2022-09-03T13:19:59.097Z,15.58
2022-09-03T13:22:17.845Z,15.63
2022-09-03T13:24:52.182Z,15.62
2022-09-03T13:27:10.520Z,15.59
2022-09-03T13:29:37.457Z,15.81
2022-09-03T13:31:53.365Z,15.90
2022-09-03T13:34:07.160Z,16.05
2022-09-03T13:36:24.026Z,16.10
2022-09-03T13:38:37.561Z,16.32
2022-09-03T13:40:51.446Z,16.55
2022-09-03T13:43:06.408Z,16.82
2022-09-03T13:45:29.050Z,17.15
2022-09-03T13:48:05.126Z,17.01
2022-09-03T13:50:25.563Z,17.14
2022-09-03T13:52:43.816Z,17.06
2022-09-03T13:54:57.025Z,17.32
2022-09-03T13:57:08.781Z,17.45
2022-09-03T13:59:22.898Z,17.62
2022-09-03T14:01:56.838Z,17.48
2022-09-03T14:04:05.842Z,17.42
2022-09-03T14:06:23.874Z,17.57
2022-09-03T14:08:47.190Z,17.59
2022-09-03T14:11:04.340Z,17.72
2022-09-03T14:13:22.069Z,17.78
2022-09-03T14:15:40.254Z,17.86
2022-09-03T14:17:59.276Z,17.91
2022-09-03T14:20:11.601Z,17.87
2022-09-03T14:22:25.852Z,17.78
2022-09-03T14:24:50.991Z,17.88
2022-09-03T14:27:02.337Z,18.00
2022-09-03T14:29:19.509Z,17.83
2022-09-03T14:31:41.029Z,18.07
2022-09-03T14:34:02.384Z,18.28
2022-09-03T14:36:20.706Z,18.29
2022-09-03T14:38:48.560Z,18.57
2022-09-03T14:41:07.904Z,18.36
2022-09-03T14:43:34.057Z,18.36
2022-09-03T14:46:21.092Z,18.56
2022-09-03T14:48:57.324Z,18.69
2022-09-03T14:51:20.189Z,18.33
2022-09-03T14:53:54.351Z,18.28
2022-09-03T14:56:20.833Z,18.35
2022-09-03T14:58:43.698Z,18.48
2022-09-03T15:01:00.373Z,18.65
2022-09-03T15:03:24.178Z,18.96
2022-09-03T15:05:52.855Z,19.14
2022-09-03T15:08:08.230Z,19.44
2022-09-03T15:10:24.797Z,19.51
2022-09-03T15:12:40.689Z,19.83
2022-09-03T15:14:56.139Z,20.14
2022-09-03T15:17:20.585Z,20.32
2022-09-03T15:19:46.880Z,20.63
2022-09-03T15:22:09.801Z,20.77
2022-09-03T15:24:30.743Z,20.82
2022-09-03T15:26:56.220Z,21.05
2022-09-03T15:29:19.097Z,21.18
2022-09-03T15:31:35.220Z,21.26
2022-09-03T15:33:53.334Z,21.27
2022-09-03T15:36:17.822Z,21.04
2022-09-03T15:38:40.110Z,20.85
2022-09-03T15:40:54.316Z,20.86
2022-09-03T15:43:09.629Z,21.19
2022-09-03T15:45:31.698Z,21.01
2022-09-03T15:47:54.064Z,21.09
2022-09-03T15:50:06.747Z,20.98
2022-09-03T15:52:31.977Z,21.10
2022-09-03T15:54:46.602Z,21.22
2022-09-03T15:57:01.184Z,21.33
2022-09-03T15:59:18.037Z,21.05
2022-09-03T16:01:35.488Z,21.10
2022-09-03T16:03:59.622Z,20.79
2022-09-03T16:06:21.300Z,20.51
2022-09-03T16:08:37.177Z,20.50
2022-09-03T16:10:57.478Z,20.29
2022-09-03T16:13:13.799Z,20.04
2022-09-03T16:15:29.132Z,19.94
2022-09-03T16:17:47.489Z,20.09
2022-09-03T16:19:59.567Z,20.11
2022-09-03T16:22:15.757Z,20.13
2022-09-03T16:24:29.605Z,20.11
2022-09-03T16:26:54.734Z,20.00
2022-09-03T16:29:06.122Z,19.80
2022-09-03T16:31:28.048Z,19.80
2022-09-03T16:33:49.761Z,19.74
2022-09-03T16:36:08.646Z,19.53
2022-09-03T16:38:28.703Z,19.46
2022-09-03T16:40:44.465Z,19.49
2022-09-03T16:43:05.128Z,19.46
2022-09-03T16:45:36.377Z,19.32
2022-09-03T16:47:59.158Z,19.39
2022-09-03T16:50:21.572Z,19.43
2022-09-03T16:52:40.401Z,19.42
2022-09-03T16:55:07.380Z,19.40
2022-09-03T16:57:31.363Z,19.35
2022-09-03T16:59:57.699Z,19.21
2022-09-03T17:02:40.584Z,19.21
2022-09-03T17:05:21.119Z,19.32
2022-09-03T17:07:51.298Z,19.31
2022-09-03T17:10:10.876Z,19.29
2022-09-03T17:12:31.188Z,19.30
2022-09-03T17:15:00.456Z,19.49
2022-09-03T17:17:22.769Z,19.52
2022-09-03T17:19:38.457Z,19.62
2022-09-03T17:21:53.763Z,19.72
2022-09-03T17:24:36.785Z,19.68
2022-09-03T17:26:56.064Z,19.78
2022-09-03T17:29:20.760Z,19.86
2022-09-03T17:31:42.970Z,19.76
2022-09-03T17:34:05.714Z,19.66
2022-09-03T17:36:21.415Z,19.53
2022-09-03T17:38:56.408Z,19.41
2022-09-03T17:41:19.175Z,19.12
2022-09-03T17:43:38.421Z,18.90
2022-09-03T17:45:54.459Z,18.64
2022-09-03T17:48:16.407Z,18.54
2022-09-03T17:50:27.899Z,18.47
2022-09-03T17:52:43.121Z,18.46
2022-09-03T17:54:57.739Z,18.33
2022-09-03T17:57:18.479Z,18.30
2022-09-03T17:59:37.915Z,18.26
2022-09-03T18:01:54.382Z,18.10
2022-09-03T18:04:14.678Z,18.02
2022-09-03T18:06:32.804Z,18.02
2022-09-03T18:08:51.313Z,18.00
2022-09-03T18:11:15.597Z,18.02
2022-09-03T18:13:46.582Z,17.93
2022-09-03T18:16:15.779Z,17.79
2022-09-03T18:18:31.308Z,17.80
2022-09-03T18:21:21.997Z,17.88
2022-09-03T18:23:47.748Z,17.86
2022-09-03T18:26:17.182Z,17.71
2022-09-03T18:28:49.520Z,17.57
2022-09-03T18:31:10.163Z,17.47
2022-09-03T18:33:52.492Z,17.38
2022-09-03T18:36:15.065Z,17.33
2022-09-03T18:38:41.271Z,17.27
2022-09-03T18:41:08.929Z,17.21
2022-09-03T18:43:39.138Z,17.15
2022-09-03T18:49:05.297Z,17.00
2022-09-03T18:51:32.992Z,16.96
2022-09-03T18:54:05.797Z,17.00
2022-09-03T18:56:38.564Z,17.00
2022-09-03T18:59:14.547Z,16.90
2022-09-03T19:01:47.987Z,16.79
2022-09-03T19:04:22.131Z,16.77
2022-09-03T19:06:50.702Z,16.79
2022-09-03T19:09:23.057Z,16.73
2022-09-03T19:11:46.897Z,16.67
2022-09-03T19:14:07.566Z,16.66
2022-09-03T19:16:35.293Z,16.59
2022-09-03T19:19:19.821Z,16.61
2022-09-03T19:21:44.927Z,16.56
2022-09-03T19:24:15.262Z,16.54
2022-09-03T19:26:46.944Z,16.58
2022-09-03T19:29:16.199Z,16.70
2022-09-03T19:31:46.924Z,16.73
2022-09-03T19:34:18.610Z,16.75
2022-09-03T19:36:48.059Z,16.72
2022-09-03T19:39:22.822Z,16.73
2022-09-03T19:41:47.990Z,16.68
2022-09-03T19:44:20.256Z,16.72
2022-09-03T19:46:49.363Z,16.59
2022-09-03T19:49:23.316Z,16.57
2022-09-03T19:51:49.954Z,16.62
2022-09-03T19:54:13.578Z,16.61
2022-09-03T19:56:42.608Z,16.58
2022-09-03T19:59:08.106Z,16.46
2022-09-03T20:01:28.612Z,16.38
2022-09-03T20:03:51.210Z,16.28
2022-09-03T20:06:16.853Z,16.28
2022-09-03T20:08:40.316Z,16.29
2022-09-03T20:10:52.591Z,16.35
2022-09-03T20:13:08.500Z,16.26
2022-09-03T20:15:17.093Z,16.20
2022-09-03T20:17:38.167Z,16.17
2022-09-03T20:20:05.997Z,16.23
2022-09-03T20:22:28.524Z,16.16
2022-09-03T20:24:49.517Z,16.12
2022-09-03T20:27:05.929Z,16.10
2022-09-03T20:29:44.822Z,16.04
2022-09-03T20:32:01.071Z,15.98
2022-09-03T20:34:26.071Z,15.94
2022-09-03T20:36:51.046Z,15.91
2022-09-03T20:39:20.505Z,15.93
2022-09-03T20:41:38.638Z,15.96
2022-09-03T20:44:23.758Z,15.91
2022-09-03T20:46:47.950Z,15.90
2022-09-03T20:49:07.838Z,15.92
2022-09-03T20:51:22.900Z,15.92
2022-09-03T20:53:55.061Z,15.98
2022-09-03T20:56:15.152Z,15.99
2022-09-03T20:58:41.542Z,15.97
2022-09-03T21:00:59.651Z,15.98
2022-09-03T21:03:20.012Z,15.91
2022-09-03T21:05:33.237Z,15.95
2022-09-03T21:07:53.182Z,15.96
2022-09-03T21:10:08.348Z,15.89
2022-09-03T21:12:25.563Z,15.94
2022-09-03T21:14:41.577Z,15.89
2022-09-03T21:17:00.293Z,15.94
2022-09-03T21:19:14.451Z,15.94
2022-09-03T21:21:36.030Z,15.82
2022-09-03T21:23:48.190Z,15.79
2022-09-03T21:26:01.517Z,15.80
2022-09-03T21:28:18.810Z,15.80
2022-09-03T21:30:26.839Z,15.85
2022-09-03T21:32:44.614Z,15.87
2022-09-03T21:35:04.953Z,15.89
2022-09-03T21:37:15.081Z,16.00
2022-09-03T21:39:28.639Z,16.07
2022-09-03T21:41:42.293Z,16.08
2022-09-03T21:43:58.843Z,16.09
2022-09-03T21:46:12.449Z,16.08
2022-09-03T21:48:25.622Z,16.07
2022-09-03T21:50:45.473Z,16.11
2022-09-03T21:52:59.279Z,16.15
2022-09-03T21:55:24.221Z,16.24
2022-09-03T21:57:37.633Z,16.29
2022-09-03T22:00:17.960Z,16.30
2022-09-03T22:02:30.476Z,16.31
2022-09-03T22:04:39.623Z,16.31
2022-09-03T22:07:00.901Z,16.36
2022-09-03T22:09:17.721Z,16.52
2022-09-03T22:11:33.218Z,16.51
2022-09-03T22:13:49.108Z,16.51
2022-09-03T22:16:03.232Z,16.39
2022-09-03T22:18:23.997Z,16.27
2022-09-03T22:20:38.236Z,16.24
2022-09-03T22:22:56.637Z,16.29
2022-09-03T22:25:10.897Z,16.35
2022-09-03T22:27:26.402Z,16.45
2022-09-03T22:29:43.353Z,16.48
2022-09-03T22:32:01.963Z,16.01
2022-09-03T22:34:28.066Z,15.86
2022-09-03T22:36:40.356Z,15.80
2022-09-03T22:39:05.829Z,15.72
2022-09-03T22:41:28.511Z,15.83
2022-09-03T22:43:41.453Z,15.90
2022-09-03T22:46:05.539Z,15.89
2022-09-03T22:48:25.875Z,15.91
2022-09-03T22:50:54.930Z,15.83
2022-09-03T22:53:13.976Z,15.85
2022-09-03T22:55:25.543Z,15.87
2022-09-03T22:57:38.690Z,15.84
2022-09-03T22:59:58.295Z,15.83
2022-09-03T23:02:16.668Z,15.79
2022-09-03T23:04:31.018Z,15.74
2022-09-03T23:06:52.968Z,15.68
2022-09-03T23:09:05.792Z,15.65
2022-09-03T23:11:25.422Z,15.63
2022-09-03T23:13:42.143Z,15.64
2022-09-03T23:16:01.681Z,15.61
2022-09-03T23:18:17.825Z,15.72
2022-09-03T23:20:31.154Z,15.67
2022-09-03T23:22:46.017Z,15.63
2022-09-03T23:24:58.624Z,15.58
2022-09-03T23:27:10.202Z,15.57
2022-09-03T23:29:26.221Z,15.58
2022-09-03T23:31:34.998Z,15.52
2022-09-03T23:33:42.981Z,15.52
2022-09-03T23:35:59.107Z,15.53
2022-09-03T23:38:20.647Z,15.44
2022-09-03T23:40:43.532Z,15.40
2022-09-03T23:43:16.830Z,15.41
2022-09-03T23:45:36.254Z,15.35
2022-09-03T23:47:47.673Z,15.37
2022-09-03T23:50:05.488Z,15.32
2022-09-03T23:52:35.566Z,15.27
2022-09-03T23:54:50.758Z,15.23
2022-09-03T23:57:10.107Z,15.17
2022-09-03T23:59:32.009Z,15.11
